sensor_id;sensor_type;location;lat;lon;timestamp;P1;durP1;ratioP1;P2;durP2;ratioP2
15921;SDS011;8060;50.948;3.146;2023-04-24T05:22:42;29.17;;;14.70;;
15921;SDS011;8060;50.948;3.146;2023-04-24T05:25:10;23.77;;;14.70;;
15921;SDS011;8060;50.948;3.146;2023-04-24T05:27:38;25.20;;;13.73;;
15921;SDS011;8060;50.948;3.146;2023-04-24T05:30:07;29.07;;;15.50;;
15921;SDS011;8060;50.948;3.146;2023-04-24T05:32:36;27.77;;;14.73;;
15921;SDS011;8060;50.948;3.146;2023-04-24T05:35:04;29.63;;;14.80;;
15921;SDS011;8060;50.948;3.146;2023-04-24T05:37:33;30.67;;;15.13;;
15921;SDS011;8060;50.948;3.146;2023-04-24T05:40:03;29.33;;;15.73;;
15921;SDS011;8060;50.948;3.146;2023-04-24T05:42:31;27.27;;;15.40;;
15921;SDS011;8060;50.948;3.146;2023-04-24T05:45:00;26.77;;;14.87;;
15921;SDS011;8060;50.948;3.146;2023-04-24T05:47:28;25.33;;;13.93;;
15921;SDS011;8060;50.948;3.146;2023-04-24T05:49:56;29.57;;;14.43;;
15921;SDS011;8060;50.948;3.146;2023-04-24T05:52:24;29.30;;;13.40;;
15921;SDS011;8060;50.948;3.146;2023-04-24T05:54:52;20.13;;;12.63;;
15921;SDS011;8060;50.948;3.146;2023-04-24T05:57:21;30.07;;;12.63;;
15921;SDS011;8060;50.948;3.146;2023-04-24T05:59:49;25.40;;;12.43;;
15921;SDS011;8060;50.948;3.146;2023-04-24T06:02:18;21.73;;;10.90;;
15921;SDS011;8060;50.948;3.146;2023-04-24T06:04:46;24.03;;;11.43;;
15921;SDS011;8060;50.948;3.146;2023-04-24T06:07:14;23.30;;;11.60;;
15921;SDS011;8060;50.948;3.146;2023-04-24T06:09:43;27.40;;;12.00;;
15921;SDS011;8060;50.948;3.146;2023-04-24T06:12:11;21.27;;;11.67;;
15921;SDS011;8060;50.948;3.146;2023-04-24T06:14:40;26.77;;;11.70;;
15921;SDS011;8060;50.948;3.146;2023-04-24T06:17:08;22.47;;;11.90;;
15921;SDS011;8060;50.948;3.146;2023-04-24T06:19:36;23.30;;;11.33;;
15921;SDS011;8060;50.948;3.146;2023-04-24T06:22:04;23.67;;;10.97;;
15921;SDS011;8060;50.948;3.146;2023-04-24T06:24:36;25.70;;;10.20;;
15921;SDS011;8060;50.948;3.146;2023-04-24T06:27:04;20.33;;;10.00;;
15921;SDS011;8060;50.948;3.146;2023-04-24T06:29:32;25.17;;;10.57;;
15921;SDS011;8060;50.948;3.146;2023-04-24T06:32:02;19.80;;;10.20;;
15921;SDS011;8060;50.948;3.146;2023-04-24T06:34:30;20.93;;;10.10;;
15921;SDS011;8060;50.948;3.146;2023-04-24T06:36:58;25.53;;;10.37;;
15921;SDS011;8060;50.948;3.146;2023-04-24T06:39:27;17.47;;;9.73;;
15921;SDS011;8060;50.948;3.146;2023-04-24T06:41:55;21.00;;;9.67;;
15921;SDS011;8060;50.948;3.146;2023-04-24T06:44:23;17.47;;;9.23;;
15921;SDS011;8060;50.948;3.146;2023-04-24T06:46:51;19.50;;;9.50;;
15921;SDS011;8060;50.948;3.146;2023-04-24T06:49:20;21.43;;;9.77;;
15921;SDS011;8060;50.948;3.146;2023-04-24T06:51:48;22.10;;;9.07;;
15921;SDS011;8060;50.948;3.146;2023-04-24T06:54:16;23.50;;;10.10;;
15921;SDS011;8060;50.948;3.146;2023-04-24T06:56:44;17.37;;;9.27;;
15921;SDS011;8060;50.948;3.146;2023-04-24T06:59:14;18.83;;;8.93;;
15921;SDS011;8060;50.948;3.146;2023-04-24T07:01:42;20.87;;;8.57;;
15921;SDS011;8060;50.948;3.146;2023-04-24T07:04:10;17.63;;;8.03;;
15921;SDS011;8060;50.948;3.146;2023-04-24T07:06:40;19.50;;;7.93;;
15921;SDS011;8060;50.948;3.146;2023-04-24T07:09:09;17.77;;;7.87;;
15921;SDS011;8060;50.948;3.146;2023-04-24T07:11:37;14.23;;;7.73;;
15921;SDS011;8060;50.948;3.146;2023-04-24T07:14:06;16.60;;;7.47;;
15921;SDS011;8060;50.948;3.146;2023-04-24T07:16:35;21.13;;;7.23;;
15921;SDS011;8060;50.948;3.146;2023-04-24T07:19:03;16.43;;;7.07;;
15921;SDS011;8060;50.948;3.146;2023-04-24T07:21:31;17.83;;;6.97;;
15921;SDS011;8060;50.948;3.146;2023-04-24T07:24:01;20.37;;;7.27;;
15921;SDS011;8060;50.948;3.146;2023-04-24T07:26:29;13.20;;;6.40;;
15921;SDS011;8060;50.948;3.146;2023-04-24T07:28:58;16.93;;;6.80;;
15921;SDS011;8060;50.948;3.146;2023-04-24T07:31:26;15.47;;;6.40;;
15921;SDS011;8060;50.948;3.146;2023-04-24T07:33:54;18.77;;;6.40;;
15921;SDS011;8060;50.948;3.146;2023-04-24T07:36:24;23.17;;;7.50;;
15921;SDS011;8060;50.948;3.146;2023-04-24T07:38:52;17.93;;;7.17;;
15921;SDS011;8060;50.948;3.146;2023-04-24T07:41:21;18.50;;;6.77;;
15921;SDS011;8060;50.948;3.146;2023-04-24T07:43:50;21.93;;;7.33;;
15921;SDS011;8060;50.948;3.146;2023-04-24T07:46:20;22.13;;;6.83;;
15921;SDS011;8060;50.948;3.146;2023-04-24T07:48:49;16.30;;;6.37;;
15921;SDS011;8060;50.948;3.146;2023-04-24T07:51:37;17.23;;;6.77;;
15921;SDS011;8060;50.948;3.146;2023-04-24T07:54:05;14.17;;;7.10;;
15921;SDS011;8060;50.948;3.146;2023-04-24T07:56:34;16.40;;;6.50;;
15921;SDS011;8060;50.948;3.146;2023-04-24T07:59:05;16.63;;;5.87;;
15921;SDS011;8060;50.948;3.146;2023-04-24T08:01:33;19.40;;;6.43;;
15921;SDS011;8060;50.948;3.146;2023-04-24T08:04:01;12.50;;;5.80;;
15921;SDS011;8060;50.948;3.146;2023-04-24T08:06:30;16.40;;;6.50;;
15921;SDS011;8060;50.948;3.146;2023-04-24T08:08:58;15.40;;;6.47;;
15921;SDS011;8060;50.948;3.146;2023-04-24T08:11:27;16.10;;;6.40;;
15921;SDS011;8060;50.948;3.146;2023-04-24T08:13:56;18.73;;;6.97;;
15921;SDS011;8060;50.948;3.146;2023-04-24T08:16:24;19.97;;;6.93;;
15921;SDS011;8060;50.948;3.146;2023-04-24T08:18:53;16.83;;;6.93;;
15921;SDS011;8060;50.948;3.146;2023-04-24T08:21:21;21.00;;;6.97;;
15921;SDS011;8060;50.948;3.146;2023-04-24T08:23:49;18.23;;;7.57;;
15921;SDS011;8060;50.948;3.146;2023-04-24T08:26:17;15.97;;;7.17;;
15921;SDS011;8060;50.948;3.146;2023-04-24T08:28:45;13.27;;;6.53;;
15921;SDS011;8060;50.948;3.146;2023-04-24T08:31:15;18.03;;;7.53;;
15921;SDS011;8060;50.948;3.146;2023-04-24T08:33:43;18.10;;;9.03;;
15921;SDS011;8060;50.948;3.146;2023-04-24T08:36:12;13.70;;;7.10;;
15921;SDS011;8060;50.948;3.146;2023-04-24T08:38:40;18.67;;;8.40;;
15921;SDS011;8060;50.948;3.146;2023-04-24T08:41:09;19.03;;;8.50;;
15921;SDS011;8060;50.948;3.146;2023-04-24T08:43:38;18.20;;;8.20;;
15921;SDS011;8060;50.948;3.146;2023-04-24T08:46:07;17.73;;;8.47;;
15921;SDS011;8060;50.948;3.146;2023-04-24T08:48:39;18.90;;;8.33;;
15921;SDS011;8060;50.948;3.146;2023-04-24T08:51:07;20.27;;;9.33;;
15921;SDS011;8060;50.948;3.146;2023-04-24T08:53:37;19.40;;;9.47;;
15921;SDS011;8060;50.948;3.146;2023-04-24T08:56:06;20.87;;;9.77;;
15921;SDS011;8060;50.948;3.146;2023-04-24T08:58:34;17.57;;;10.33;;
15921;SDS011;8060;50.948;3.146;2023-04-24T09:01:03;18.70;;;10.83;;
15921;SDS011;8060;50.948;3.146;2023-04-24T09:03:32;20.40;;;11.23;;
15921;SDS011;8060;50.948;3.146;2023-04-24T09:06:03;19.40;;;11.13;;
15921;SDS011;8060;50.948;3.146;2023-04-24T09:08:33;17.47;;;9.80;;
15921;SDS011;8060;50.948;3.146;2023-04-24T09:11:02;18.43;;;10.20;;
15921;SDS011;8060;50.948;3.146;2023-04-24T09:13:31;17.97;;;9.77;;
15921;SDS011;8060;50.948;3.146;2023-04-24T09:16:00;20.33;;;10.40;;
15921;SDS011;8060;50.948;3.146;2023-04-24T09:18:28;19.53;;;9.97;;
15921;SDS011;8060;50.948;3.146;2023-04-24T09:20:57;22.57;;;10.00;;
15921;SDS011;8060;50.948;3.146;2023-04-24T09:23:28;16.03;;;9.13;;
15921;SDS011;8060;50.948;3.146;2023-04-24T09:25:58;19.20;;;8.90;;
15921;SDS011;8060;50.948;3.146;2023-04-24T09:28:29;19.40;;;8.90;;
15921;SDS011;8060;50.948;3.146;2023-04-24T09:31:06;17.43;;;9.17;;
15921;SDS011;8060;50.948;3.146;2023-04-24T09:33:36;15.73;;;8.60;;
15921;SDS011;8060;50.948;3.146;2023-04-24T09:36:04;17.33;;;8.63;;
15921;SDS011;8060;50.948;3.146;2023-04-24T09:38:35;17.20;;;8.53;;
15921;SDS011;8060;50.948;3.146;2023-04-24T09:41:04;22.40;;;10.40;;
15921;SDS011;8060;50.948;3.146;2023-04-24T09:43:34;16.13;;;9.50;;
15921;SDS011;8060;50.948;3.146;2023-04-24T09:46:06;15.47;;;9.23;;
15921;SDS011;8060;50.948;3.146;2023-04-24T09:48:36;21.57;;;9.50;;
15921;SDS011;8060;50.948;3.146;2023-04-24T09:51:05;18.87;;;9.80;;
15921;SDS011;8060;50.948;3.146;2023-04-24T09:53:38;19.93;;;9.23;;
15921;SDS011;8060;50.948;3.146;2023-04-24T09:56:07;18.73;;;9.93;;
15921;SDS011;8060;50.948;3.146;2023-04-24T09:58:38;22.50;;;9.17;;
15921;SDS011;8060;50.948;3.146;2023-04-24T10:01:06;15.63;;;8.40;;
15921;SDS011;8060;50.948;3.146;2023-04-24T10:03:34;17.13;;;9.30;;
15921;SDS011;8060;50.948;3.146;2023-04-24T10:06:03;17.00;;;9.73;;
15921;SDS011;8060;50.948;3.146;2023-04-24T10:08:35;23.73;;;9.17;;
15921;SDS011;8060;50.948;3.146;2023-04-24T10:11:06;19.70;;;8.57;;
15921;SDS011;8060;50.948;3.146;2023-04-24T10:13:34;16.93;;;8.00;;
15921;SDS011;8060;50.948;3.146;2023-04-24T10:16:03;21.50;;;8.63;;
15921;SDS011;8060;50.948;3.146;2023-04-24T10:18:32;17.70;;;8.53;;
15921;SDS011;8060;50.948;3.146;2023-04-24T10:21:02;16.33;;;8.10;;
15921;SDS011;8060;50.948;3.146;2023-04-24T10:23:30;11.53;;;7.37;;
15921;SDS011;8060;50.948;3.146;2023-04-24T10:26:00;13.43;;;8.00;;
15921;SDS011;8060;50.948;3.146;2023-04-24T10:28:30;17.23;;;7.07;;
15921;SDS011;8060;50.948;3.146;2023-04-24T10:30:59;12.50;;;6.73;;
15921;SDS011;8060;50.948;3.146;2023-04-24T10:33:28;14.40;;;6.53;;
15921;SDS011;8060;50.948;3.146;2023-04-24T10:35:57;12.83;;;5.90;;
15921;SDS011;8060;50.948;3.146;2023-04-24T10:38:26;14.90;;;6.20;;
15921;SDS011;8060;50.948;3.146;2023-04-24T10:41:06;13.43;;;5.57;;
15921;SDS011;8060;50.948;3.146;2023-04-24T10:43:41;15.57;;;5.43;;
15921;SDS011;8060;50.948;3.146;2023-04-24T10:46:10;9.53;;;4.77;;
15921;SDS011;8060;50.948;3.146;2023-04-24T10:48:44;10.27;;;4.07;;
15921;SDS011;8060;50.948;3.146;2023-04-24T10:51:21;12.97;;;5.23;;
15921;SDS011;8060;50.948;3.146;2023-04-24T10:53:50;9.13;;;5.00;;
15921;SDS011;8060;50.948;3.146;2023-04-24T10:56:18;10.47;;;5.10;;
15921;SDS011;8060;50.948;3.146;2023-04-24T10:58:50;13.63;;;5.30;;
15921;SDS011;8060;50.948;3.146;2023-04-24T11:01:23;9.97;;;4.83;;
15921;SDS011;8060;50.948;3.146;2023-04-24T11:03:54;15.43;;;5.23;;
15921;SDS011;8060;50.948;3.146;2023-04-24T11:06:28;11.23;;;4.90;;
15921;SDS011;8060;50.948;3.146;2023-04-24T11:09:01;10.70;;;5.50;;
15921;SDS011;8060;50.948;3.146;2023-04-24T11:11:32;14.33;;;5.70;;
15921;SDS011;8060;50.948;3.146;2023-04-24T11:14:05;11.63;;;5.20;;
15921;SDS011;8060;50.948;3.146;2023-04-24T11:16:35;9.57;;;4.70;;
15921;SDS011;8060;50.948;3.146;2023-04-24T11:19:17;10.37;;;5.00;;
15921;SDS011;8060;50.948;3.146;2023-04-24T11:21:54;11.03;;;4.37;;
15921;SDS011;8060;50.948;3.146;2023-04-24T11:24:27;10.93;;;5.27;;
15921;SDS011;8060;50.948;3.146;2023-04-24T11:27:01;10.80;;;5.13;;
15921;SDS011;8060;50.948;3.146;2023-04-24T11:32:29;8.63;;;4.77;;
15921;SDS011;8060;50.948;3.146;2023-04-24T11:34:59;14.50;;;4.67;;
15921;SDS011;8060;50.948;3.146;2023-04-24T11:37:29;12.50;;;4.87;;
15921;SDS011;8060;50.948;3.146;2023-04-24T11:40:01;8.17;;;3.90;;
15921;SDS011;8060;50.948;3.146;2023-04-24T11:42:33;9.83;;;3.33;;
15921;SDS011;8060;50.948;3.146;2023-04-24T11:45:06;6.17;;;3.27;;
15921;SDS011;8060;50.948;3.146;2023-04-24T11:47:35;12.83;;;3.73;;
15921;SDS011;8060;50.948;3.146;2023-04-24T11:50:05;8.40;;;3.60;;
15921;SDS011;8060;50.948;3.146;2023-04-24T11:52:36;9.20;;;3.53;;
15921;SDS011;8060;50.948;3.146;2023-04-24T11:55:06;7.77;;;3.23;;
15921;SDS011;8060;50.948;3.146;2023-04-24T11:57:36;8.97;;;3.67;;
15921;SDS011;8060;50.948;3.146;2023-04-24T12:00:06;7.60;;;3.67;;
15921;SDS011;8060;50.948;3.146;2023-04-24T12:02:36;10.80;;;4.07;;
15921;SDS011;8060;50.948;3.146;2023-04-24T12:05:06;10.17;;;4.27;;
15921;SDS011;8060;50.948;3.146;2023-04-24T12:07:40;8.83;;;3.97;;
15921;SDS011;8060;50.948;3.146;2023-04-24T12:10:10;10.87;;;3.73;;
15921;SDS011;8060;50.948;3.146;2023-04-24T12:12:38;8.70;;;3.30;;
15921;SDS011;8060;50.948;3.146;2023-04-24T12:15:08;8.13;;;3.30;;
15921;SDS011;8060;50.948;3.146;2023-04-24T12:17:40;7.43;;;3.20;;
15921;SDS011;8060;50.948;3.146;2023-04-24T12:20:10;7.20;;;3.03;;
15921;SDS011;8060;50.948;3.146;2023-04-24T12:22:42;10.00;;;3.30;;
15921;SDS011;8060;50.948;3.146;2023-04-24T12:25:12;8.33;;;3.90;;
15921;SDS011;8060;50.948;3.146;2023-04-24T12:27:41;5.23;;;2.87;;
15921;SDS011;8060;50.948;3.146;2023-04-24T12:30:12;4.43;;;2.90;;
15921;SDS011;8060;50.948;3.146;2023-04-24T12:32:41;7.20;;;2.93;;
15921;SDS011;8060;50.948;3.146;2023-04-24T12:35:10;7.60;;;2.60;;
15921;SDS011;8060;50.948;3.146;2023-04-24T12:37:41;7.27;;;2.73;;
15921;SDS011;8060;50.948;3.146;2023-04-24T12:40:13;7.57;;;2.73;;
15921;SDS011;8060;50.948;3.146;2023-04-24T12:42:42;5.17;;;2.80;;
15921;SDS011;8060;50.948;3.146;2023-04-24T12:45:13;8.03;;;2.60;;
15921;SDS011;8060;50.948;3.146;2023-04-24T12:47:42;5.23;;;3.00;;
15921;SDS011;8060;50.948;3.146;2023-04-24T12:50:12;6.53;;;2.90;;
15921;SDS011;8060;50.948;3.146;2023-04-24T12:52:41;6.27;;;2.80;;
15921;SDS011;8060;50.948;3.146;2023-04-24T12:55:10;5.17;;;2.90;;
15921;SDS011;8060;50.948;3.146;2023-04-24T12:57:39;9.70;;;3.03;;
15921;SDS011;8060;50.948;3.146;2023-04-24T13:00:08;5.10;;;2.57;;
15921;SDS011;8060;50.948;3.146;2023-04-24T13:02:38;5.63;;;3.43;;
15921;SDS011;8060;50.948;3.146;2023-04-24T13:05:07;4.93;;;2.50;;
15921;SDS011;8060;50.948;3.146;2023-04-24T13:07:37;2.97;;;2.30;;
15921;SDS011;8060;50.948;3.146;2023-04-24T13:10:06;4.30;;;2.13;;
15921;SDS011;8060;50.948;3.146;2023-04-24T13:12:35;6.53;;;3.20;;
15921;SDS011;8060;50.948;3.146;2023-04-24T13:15:03;5.43;;;2.30;;
15921;SDS011;8060;50.948;3.146;2023-04-24T13:17:32;8.30;;;2.70;;
15921;SDS011;8060;50.948;3.146;2023-04-24T13:20:02;5.83;;;1.90;;
15921;SDS011;8060;50.948;3.146;2023-04-24T13:22:31;3.93;;;2.07;;
15921;SDS011;8060;50.948;3.146;2023-04-24T13:24:59;3.50;;;2.20;;
15921;SDS011;8060;50.948;3.146;2023-04-24T13:27:28;3.50;;;1.77;;
15921;SDS011;8060;50.948;3.146;2023-04-24T13:29:56;4.50;;;2.00;;
15921;SDS011;8060;50.948;3.146;2023-04-24T13:32:24;3.87;;;2.03;;
15921;SDS011;8060;50.948;3.146;2023-04-24T13:34:53;5.40;;;2.00;;
15921;SDS011;8060;50.948;3.146;2023-04-24T13:37:22;4.33;;;1.93;;
15921;SDS011;8060;50.948;3.146;2023-04-24T13:39:50;6.00;;;2.20;;
15921;SDS011;8060;50.948;3.146;2023-04-24T13:42:19;6.03;;;2.10;;
15921;SDS011;8060;50.948;3.146;2023-04-24T13:44:47;4.43;;;1.80;;
15921;SDS011;8060;50.948;3.146;2023-04-24T13:47:15;4.10;;;1.60;;
15921;SDS011;8060;50.948;3.146;2023-04-24T13:49:43;2.63;;;1.60;;
15921;SDS011;8060;50.948;3.146;2023-04-24T13:52:11;5.13;;;2.20;;
15921;SDS011;8060;50.948;3.146;2023-04-24T13:54:41;6.20;;;2.17;;
15921;SDS011;8060;50.948;3.146;2023-04-24T13:57:09;8.60;;;2.30;;
15921;SDS011;8060;50.948;3.146;2023-04-24T13:59:37;7.17;;;2.13;;
15921;SDS011;8060;50.948;3.146;2023-04-24T14:02:06;5.83;;;1.97;;
15921;SDS011;8060;50.948;3.146;2023-04-24T14:04:34;4.97;;;2.00;;
15921;SDS011;8060;50.948;3.146;2023-04-24T14:07:02;5.63;;;2.17;;
15921;SDS011;8060;50.948;3.146;2023-04-24T14:09:31;4.23;;;2.30;;
15921;SDS011;8060;50.948;3.146;2023-04-24T14:12:00;4.30;;;2.50;;
15921;SDS011;8060;50.948;3.146;2023-04-24T14:14:29;8.07;;;2.60;;
15921;SDS011;8060;50.948;3.146;2023-04-24T14:16:57;5.77;;;2.23;;
15921;SDS011;8060;50.948;3.146;2023-04-24T14:19:25;6.83;;;2.43;;
15921;SDS011;8060;50.948;3.146;2023-04-24T14:21:53;5.63;;;2.60;;
15921;SDS011;8060;50.948;3.146;2023-04-24T14:24:24;5.37;;;2.37;;
15921;SDS011;8060;50.948;3.146;2023-04-24T14:26:52;9.67;;;2.80;;
15921;SDS011;8060;50.948;3.146;2023-04-24T14:29:22;6.03;;;2.80;;
15921;SDS011;8060;50.948;3.146;2023-04-24T14:31:52;7.33;;;2.67;;
15921;SDS011;8060;50.948;3.146;2023-04-24T14:34:20;6.30;;;2.43;;
15921;SDS011;8060;50.948;3.146;2023-04-24T14:36:48;5.63;;;2.37;;
15921;SDS011;8060;50.948;3.146;2023-04-24T14:39:16;8.50;;;2.47;;
15921;SDS011;8060;50.948;3.146;2023-04-24T14:41:44;6.10;;;2.73;;
15921;SDS011;8060;50.948;3.146;2023-04-24T14:44:12;4.30;;;1.90;;
15921;SDS011;8060;50.948;3.146;2023-04-24T14:46:42;6.73;;;2.07;;
15921;SDS011;8060;50.948;3.146;2023-04-24T14:49:10;4.90;;;2.07;;
15921;SDS011;8060;50.948;3.146;2023-04-24T14:51:38;6.00;;;2.80;;
15921;SDS011;8060;50.948;3.146;2023-04-24T14:54:07;4.50;;;2.10;;
15921;SDS011;8060;50.948;3.146;2023-04-24T14:56:35;7.80;;;2.00;;
15921;SDS011;8060;50.948;3.146;2023-04-24T14:59:03;5.30;;;2.33;;
15921;SDS011;8060;50.948;3.146;2023-04-24T15:01:31;5.13;;;2.17;;
15921;SDS011;8060;50.948;3.146;2023-04-24T15:04:00;4.63;;;2.20;;
15921;SDS011;8060;50.948;3.146;2023-04-24T15:06:30;5.03;;;2.20;;
15921;SDS011;8060;50.948;3.146;2023-04-24T15:08:59;4.00;;;1.70;;
15921;SDS011;8060;50.948;3.146;2023-04-24T15:11:27;4.40;;;2.10;;
15921;SDS011;8060;50.948;3.146;2023-04-24T15:13:55;5.17;;;2.20;;
15921;SDS011;8060;50.948;3.146;2023-04-24T15:16:23;4.57;;;2.00;;
15921;SDS011;8060;50.948;3.146;2023-04-24T15:18:51;6.33;;;2.30;;
15921;SDS011;8060;50.948;3.146;2023-04-24T15:21:21;4.00;;;1.90;;
15921;SDS011;8060;50.948;3.146;2023-04-24T15:23:49;5.73;;;2.17;;
15921;SDS011;8060;50.948;3.146;2023-04-24T15:26:17;6.77;;;2.40;;
15921;SDS011;8060;50.948;3.146;2023-04-24T15:28:46;7.70;;;2.40;;
15921;SDS011;8060;50.948;3.146;2023-04-24T15:31:14;3.87;;;1.80;;
15921;SDS011;8060;50.948;3.146;2023-04-24T15:33:42;3.80;;;1.90;;
15921;SDS011;8060;50.948;3.146;2023-04-24T15:36:10;7.53;;;2.87;;
15921;SDS011;8060;50.948;3.146;2023-04-24T15:38:40;8.37;;;2.37;;
15921;SDS011;8060;50.948;3.146;2023-04-24T15:41:09;6.70;;;2.47;;
15921;SDS011;8060;50.948;3.146;2023-04-24T15:43:37;5.03;;;2.60;;
15921;SDS011;8060;50.948;3.146;2023-04-24T15:46:07;4.27;;;2.40;;
15921;SDS011;8060;50.948;3.146;2023-04-24T15:48:36;6.13;;;2.70;;
15921;SDS011;8060;50.948;3.146;2023-04-24T15:51:07;4.93;;;2.00;;
15921;SDS011;8060;50.948;3.146;2023-04-24T15:53:35;6.53;;;2.27;;
15921;SDS011;8060;50.948;3.146;2023-04-24T15:56:05;3.47;;;2.00;;
15921;SDS011;8060;50.948;3.146;2023-04-24T15:58:33;7.47;;;2.00;;
15921;SDS011;8060;50.948;3.146;2023-04-24T16:01:01;6.17;;;2.17;;
15921;SDS011;8060;50.948;3.146;2023-04-24T16:03:30;4.37;;;2.17;;
15921;SDS011;8060;50.948;3.146;2023-04-24T16:05:58;7.33;;;1.90;;
15921;SDS011;8060;50.948;3.146;2023-04-24T16:08:26;5.23;;;2.43;;
15921;SDS011;8060;50.948;3.146;2023-04-24T16:10:54;5.50;;;2.10;;
15921;SDS011;8060;50.948;3.146;2023-04-24T16:13:24;7.33;;;2.50;;
15921;SDS011;8060;50.948;3.146;2023-04-24T16:15:54;4.20;;;2.20;;
15921;SDS011;8060;50.948;3.146;2023-04-24T16:18:22;5.57;;;2.60;;
15921;SDS011;8060;50.948;3.146;2023-04-24T16:20:50;5.53;;;2.67;;
15921;SDS011;8060;50.948;3.146;2023-04-24T16:23:18;6.37;;;2.40;;
15921;SDS011;8060;50.948;3.146;2023-04-24T16:25:46;4.93;;;2.40;;
15921;SDS011;8060;50.948;3.146;2023-04-24T16:28:15;6.10;;;2.57;;
15921;SDS011;8060;50.948;3.146;2023-04-24T16:30:44;5.23;;;2.43;;
15921;SDS011;8060;50.948;3.146;2023-04-24T16:33:12;6.43;;;2.50;;
15921;SDS011;8060;50.948;3.146;2023-04-24T16:35:41;4.93;;;2.60;;
15921;SDS011;8060;50.948;3.146;2023-04-24T16:38:09;5.37;;;2.30;;
15921;SDS011;8060;50.948;3.146;2023-04-24T16:40:37;6.53;;;2.63;;
15921;SDS011;8060;50.948;3.146;2023-04-24T16:43:07;5.20;;;2.30;;
15921;SDS011;8060;50.948;3.146;2023-04-24T16:45:36;4.90;;;2.53;;
15921;SDS011;8060;50.948;3.146;2023-04-24T16:48:05;6.43;;;2.23;;
15921;SDS011;8060;50.948;3.146;2023-04-24T16:50:36;8.63;;;2.77;;
15921;SDS011;8060;50.948;3.146;2023-04-24T16:53:04;6.37;;;2.60;;
15921;SDS011;8060;50.948;3.146;2023-04-24T16:55:32;5.53;;;2.60;;
15921;SDS011;8060;50.948;3.146;2023-04-24T16:58:01;6.27;;;2.37;;
15921;SDS011;8060;50.948;3.146;2023-04-24T17:00:29;7.63;;;3.13;;
15921;SDS011;8060;50.948;3.146;2023-04-24T17:02:57;6.07;;;2.40;;
15921;SDS011;8060;50.948;3.146;2023-04-24T17:05:27;4.37;;;2.13;;
15921;SDS011;8060;50.948;3.146;2023-04-24T17:07:55;9.00;;;2.90;;
15921;SDS011;8060;50.948;3.146;2023-04-24T17:10:23;4.67;;;2.00;;
15921;SDS011;8060;50.948;3.146;2023-04-24T17:12:51;11.27;;;2.70;;
15921;SDS011;8060;50.948;3.146;2023-04-24T17:15:19;7.27;;;2.80;;
15921;SDS011;8060;50.948;3.146;2023-04-24T17:17:47;6.30;;;2.40;;
15921;SDS011;8060;50.948;3.146;2023-04-24T17:20:16;8.17;;;2.70;;
15921;SDS011;8060;50.948;3.146;2023-04-24T17:22:50;4.63;;;2.40;;
15921;SDS011;8060;50.948;3.146;2023-04-24T17:25:18;7.77;;;2.57;;
15921;SDS011;8060;50.948;3.146;2023-04-24T17:27:47;6.80;;;2.50;;
15921;SDS011;8060;50.948;3.146;2023-04-24T17:30:15;7.10;;;2.93;;
15921;SDS011;8060;50.948;3.146;2023-04-24T17:32:43;6.20;;;2.87;;
15921;SDS011;8060;50.948;3.146;2023-04-24T17:35:12;8.27;;;3.40;;
15921;SDS011;8060;50.948;3.146;2023-04-24T17:37:40;6.27;;;2.43;;
15921;SDS011;8060;50.948;3.146;2023-04-24T17:40:10;6.17;;;2.53;;
15921;SDS011;8060;50.948;3.146;2023-04-24T17:42:38;7.20;;;2.87;;
